createdAt,value
2023-01-19T00:00:55.009Z,95999.44
2023-01-19T00:03:21.935Z,95992.78
2023-01-19T00:05:49.131Z,95996.75
2023-01-19T00:08:16.883Z,96000.16
2023-01-19T00:10:46.209Z,95999.44
2023-01-19T00:13:13.569Z,96004.28
2023-01-19T00:15:40.556Z,95999.44
2023-01-19T00:18:09.699Z,95998.19
2023-01-19T00:20:37.924Z,96007.16
2023-01-19T00:23:05.333Z,96004.28
2023-01-19T00:25:32.515Z,96010.94
2023-01-19T00:28:01.537Z,96008.97
2023-01-19T00:30:29.017Z,96007.53
2023-01-19T00:32:56.515Z,96010.94
2023-01-19T00:35:24.752Z,96013.66
2023-01-19T00:37:51.603Z,96021.72
2023-01-19T00:40:18.600Z,96023.00
2023-01-19T00:42:45.985Z,96019.03
2023-01-19T00:45:20.936Z,96016.50
2023-01-19T00:47:49.186Z,96029.97
2023-01-19T00:50:17.752Z,96027.28
2023-01-19T00:52:44.908Z,96028.19
2023-01-19T00:55:14.903Z,96028.34
2023-01-19T00:57:42.423Z,96028.34
2023-01-19T01:00:12.347Z,96033.19
2023-01-19T01:02:40.787Z,96033.91
2023-01-19T01:05:08.813Z,96038.06
2023-01-19T01:07:41.304Z,96032.13
2023-01-19T01:10:15.418Z,96024.19
2023-01-19T01:12:53.666Z,96031.00
2023-01-19T01:15:26.501Z,96025.81
2023-01-19T01:17:53.357Z,96027.94
2023-01-19T01:20:25.359Z,96028.66
2023-01-19T01:22:53.859Z,96033.34
2023-01-19T01:25:25.323Z,96035.50
2023-01-19T01:27:52.781Z,96035.13
2023-01-19T01:30:20.087Z,96039.97
2023-01-19T01:32:46.982Z,96044.13
2023-01-19T01:35:14.369Z,96044.13
2023-01-19T01:37:42.840Z,96046.81
2023-01-19T01:40:13.035Z,96043.38
2023-01-19T01:42:40.716Z,96046.81
2023-01-19T01:45:27.257Z,96052.22
2023-01-19T01:47:55.588Z,96053.44
2023-01-19T01:50:23.198Z,96048.78
2023-01-19T01:53:07.678Z,96051.47
2023-01-19T01:55:37.576Z,96046.81
2023-01-19T01:58:05.338Z,96041.94
2023-01-19T02:00:51.160Z,96043.94
2023-01-19T02:03:18.109Z,96041.94
2023-01-19T02:05:45.590Z,96039.25
2023-01-19T02:08:37.492Z,96043.22
2023-01-19T02:11:23.275Z,96042.66
2023-01-19T02:13:50.247Z,96042.50
2023-01-19T02:16:17.710Z,96049.72
2023-01-19T02:18:45.386Z,96052.94
2023-01-19T02:21:21.179Z,96050.63
2023-01-19T02:23:50.955Z,96046.47
2023-01-19T02:26:21.654Z,96053.13
2023-01-19T02:28:51.280Z,96044.31
2023-01-19T02:31:18.600Z,96052.97
2023-01-19T02:33:45.861Z,96044.16
2023-01-19T02:36:15.326Z,96050.09
2023-01-19T02:38:43.254Z,96054.75
2023-01-19T02:41:12.311Z,96053.16
2023-01-19T02:43:39.587Z,96057.13
2023-01-19T02:46:06.466Z,96061.25
2023-01-19T02:48:33.355Z,96060.53
2023-01-19T02:51:04.450Z,96063.22
2023-01-19T02:53:31.375Z,96060.53
2023-01-19T02:56:42.716Z,96064.66
2023-01-19T02:59:33.595Z,96066.09
2023-01-19T03:02:12.853Z,96057.44
2023-01-19T03:04:49.704Z,96068.78
2023-01-19T03:07:47.728Z,96072.19
2023-01-19T03:10:29.275Z,96076.31
2023-01-19T03:12:59.487Z,96072.91
2023-01-19T03:15:36.509Z,96063.56
2023-01-19T03:18:07.135Z,96067.72
2023-01-19T03:20:34.203Z,96067.16
2023-01-19T03:23:04.328Z,96071.28
2023-01-19T03:25:34.472Z,96078.81
2023-01-19T03:28:02.301Z,96074.34
2023-01-19T03:30:33.499Z,96074.34
2023-01-19T03:33:04.862Z,96070.38
2023-01-19T03:35:35.672Z,96082.06
2023-01-19T03:38:06.859Z,96072.16
2023-01-19T03:40:34.783Z,96066.22
2023-01-19T03:43:03.139Z,96070.91
2023-01-19T03:45:32.706Z,96071.78
2023-01-19T03:48:00.094Z,96068.56
2023-01-19T03:50:29.072Z,96061.34
2023-01-19T03:53:14.335Z,96064.22
2023-01-19T03:55:44.044Z,96071.03
2023-01-19T03:58:11.120Z,96063.66
2023-01-19T04:00:38.260Z,96072.66
2023-01-19T04:03:06.050Z,96070.69
2023-01-19T04:05:33.451Z,96064.03
2023-01-19T04:08:00.903Z,96070.28
2023-01-19T04:10:27.616Z,96067.06
2023-01-19T04:12:59.582Z,96073.19
2023-01-19T04:15:27.415Z,96065.44
2023-01-19T04:18:00.298Z,96071.00
2023-01-19T04:20:34.799Z,96065.59
2023-01-19T04:23:03.169Z,96068.28
2023-01-19T04:25:30.086Z,96068.28
2023-01-19T04:27:58.481Z,96066.31
2023-01-19T04:30:25.711Z,96073.69
2023-01-19T04:32:53.073Z,96071.00
2023-01-19T04:35:19.963Z,96061.63
2023-01-19T04:37:47.850Z,96069.88
2023-01-19T04:40:14.629Z,96071.50
2023-01-19T04:42:45.382Z,96072.06
2023-01-19T04:45:13.936Z,96072.41
2023-01-19T04:47:42.739Z,96071.50
2023-01-19T04:50:11.266Z,96078.31
2023-01-19T04:52:38.969Z,96079.75
2023-01-19T04:55:06.875Z,96073.84
2023-01-19T04:57:33.664Z,96083.53
2023-01-19T05:00:00.542Z,96082.25
2023-01-19T05:02:27.633Z,96084.41
2023-01-19T05:04:54.542Z,96085.28
2023-01-19T05:07:21.453Z,96092.13
2023-01-19T05:09:48.428Z,96092.31
2023-01-19T05:12:15.412Z,96096.44
2023-01-19T05:14:42.269Z,96096.44
2023-01-19T05:17:09.564Z,96097.16
2023-01-19T05:19:36.459Z,96099.13
2023-01-19T05:22:04.558Z,96095.16
2023-01-19T05:24:31.450Z,96095.34
2023-01-19T05:26:58.512Z,96096.06
2023-01-19T05:29:25.614Z,96094.25
2023-01-19T05:31:52.301Z,96101.78
2023-01-19T05:34:19.320Z,96097.66
2023-01-19T05:36:46.084Z,96095.16
2023-01-19T05:39:13.072Z,96100.53
2023-01-19T05:41:39.937Z,96103.41
2023-01-19T05:44:06.929Z,96103.97
2023-01-19T05:46:34.846Z,96106.81
2023-01-19T05:49:05.274Z,96107.00
2023-01-19T05:51:35.261Z,96105.03
2023-01-19T05:54:02.457Z,96115.09
2023-01-19T05:56:29.409Z,96119.94
2023-01-19T05:58:56.640Z,96115.81
2023-01-19T06:01:23.768Z,96117.06
2023-01-19T06:03:50.629Z,96124.44
2023-01-19T06:06:17.795Z,96123.19
2023-01-19T06:08:45.789Z,96117.97
2023-01-19T06:11:12.887Z,96122.25
2023-01-19T06:13:42.006Z,96123.72
2023-01-19T06:16:09.849Z,96119.03
2023-01-19T06:18:41.978Z,96129.97
2023-01-19T06:21:20.220Z,96128.00
2023-01-19T06:23:49.807Z,96133.03
2023-01-19T06:26:16.606Z,96135.16
2023-01-19T06:28:43.405Z,96135.16
2023-01-19T06:31:10.329Z,96132.66
2023-01-19T06:33:37.208Z,96134.63
2023-01-19T06:36:04.935Z,96142.00
2023-01-19T06:38:32.942Z,96135.50
2023-01-19T06:41:00.211Z,96135.50
2023-01-19T06:43:27.356Z,96132.25
2023-01-19T06:45:54.848Z,96142.69
2023-01-19T06:48:22.330Z,96146.25
2023-01-19T06:50:49.472Z,96149.69
2023-01-19T06:53:16.799Z,96149.69
2023-01-19T06:55:44.602Z,96154.84
2023-01-19T06:58:12.444Z,96154.72
2023-01-19T07:00:39.461Z,96151.56
2023-01-19T07:03:10.938Z,96157.28
2023-01-19T07:05:38.428Z,96151.00
2023-01-19T07:08:05.677Z,96147.41
2023-01-19T07:11:25.006Z,96143.38
2023-01-19T07:13:19.857Z,96148.38
2023-01-19T07:15:46.947Z,96157.13
2023-01-19T07:18:14.031Z,96156.63
2023-01-19T07:20:41.025Z,96164.94
2023-01-19T07:23:08.220Z,96161.34
2023-01-19T07:25:35.291Z,96168.34
2023-01-19T07:28:02.337Z,96164.75
2023-01-19T07:30:29.619Z,96174.63
2023-01-19T07:33:00.362Z,96172.72
2023-01-19T07:35:29.899Z,96173.72
2023-01-19T07:37:56.879Z,96171.28
2023-01-19T07:40:24.169Z,96172.31
2023-01-19T07:42:52.255Z,96167.88
2023-01-19T07:45:20.865Z,96174.28
2023-01-19T07:47:49.077Z,96175.75
2023-01-19T07:50:17.850Z,96184.66
2023-01-19T07:52:44.937Z,96182.34
2023-01-19T07:55:11.811Z,96179.16
2023-01-19T07:57:38.849Z,96183.66
2023-01-19T08:00:06.283Z,96187.56
2023-01-19T08:02:39.286Z,96190.47
2023-01-19T08:05:06.784Z,96191.94
2023-01-19T08:07:34.497Z,96197.44
2023-01-19T08:10:01.664Z,96202.19
2023-01-19T08:12:28.543Z,96206.88
2023-01-19T08:14:55.330Z,96203.25
2023-01-19T08:17:22.334Z,96208.19
2023-01-19T08:19:49.463Z,96208.00
2023-01-19T08:22:20.596Z,96208.91
2023-01-19T08:24:51.423Z,96204.34
2023-01-19T08:27:20.287Z,96201.59
2023-01-19T08:29:47.291Z,96201.34
2023-01-19T08:32:14.392Z,96205.56
2023-01-19T08:34:42.446Z,96209.00
2023-01-19T08:37:09.438Z,96215.97
2023-01-19T08:39:36.268Z,96215.19
2023-01-19T08:42:03.284Z,96212.84
2023-01-19T08:44:29.823Z,96216.16
2023-01-19T08:46:56.489Z,96212.44
2023-01-19T08:49:23.343Z,96215.50
2023-01-19T08:51:51.353Z,96222.16
2023-01-19T08:54:18.749Z,96213.31
2023-01-19T08:56:45.723Z,96217.56
2023-01-19T08:59:14.107Z,96222.56
2023-01-19T09:01:41.757Z,96220.13
2023-01-19T09:04:09.216Z,96227.16
2023-01-19T09:06:36.169Z,96227.41
2023-01-19T09:09:03.173Z,96233.94
2023-01-19T09:11:31.065Z,96230.34
2023-01-19T09:13:57.661Z,96244.53
2023-01-19T09:16:27.373Z,96239.88
2023-01-19T09:18:54.335Z,96246.16
2023-01-19T09:21:21.295Z,96240.97
2023-01-19T09:23:49.297Z,96246.91
2023-01-19T09:26:16.676Z,96243.81
2023-01-19T09:28:43.494Z,96246.63
2023-01-19T09:31:10.713Z,96246.31
2023-01-19T09:33:37.723Z,96252.91
2023-01-19T09:36:04.704Z,96255.59
2023-01-19T09:38:33.145Z,96258.88
2023-01-19T09:41:00.880Z,96255.81
2023-01-19T09:43:39.111Z,96264.66
2023-01-19T09:46:34.764Z,96267.75
2023-01-19T09:49:05.086Z,96268.66
2023-01-19T09:51:38.450Z,96262.75
2023-01-19T09:54:14.199Z,96265.50
2023-01-19T09:56:42.094Z,96272.34
2023-01-19T09:59:47.809Z,96274.72
2023-01-19T10:02:46.982Z,96283.72
2023-01-19T10:05:29.068Z,96278.50
2023-01-19T10:08:14.309Z,96274.72
2023-01-19T10:10:43.152Z,96274.50
2023-01-19T10:13:15.571Z,96271.63
2023-01-19T10:15:55.283Z,96278.09
2023-01-19T10:18:37.048Z,96273.91
2023-01-19T10:21:12.704Z,96270.47
2023-01-19T10:23:55.590Z,96274.78
2023-01-19T10:26:28.632Z,96268.75
2023-01-19T10:29:03.007Z,96264.66
2023-01-19T10:31:32.431Z,96262.88
2023-01-19T10:33:59.633Z,96269.91
2023-01-19T10:36:30.196Z,96266.13
2023-01-19T10:38:58.288Z,96268.28
2023-01-19T10:41:49.614Z,96272.41
2023-01-19T10:44:28.672Z,96274.56
2023-01-19T10:46:57.854Z,96273.34
2023-01-19T10:49:26.926Z,96269.38
2023-01-19T10:51:53.933Z,96273.66
2023-01-19T10:54:21.077Z,96270.28
2023-01-19T10:56:58.500Z,96272.97
2023-01-19T10:59:46.037Z,96266.09
2023-01-19T11:02:22.474Z,96267.56
2023-01-19T11:04:50.355Z,96262.53
2023-01-19T11:07:20.549Z,96260.38
2023-01-19T11:09:47.683Z,96253.69
2023-01-19T11:12:21.659Z,96255.88
2023-01-19T11:14:49.399Z,96254.28
2023-01-19T11:17:22.506Z,96258.41
2023-01-19T11:19:56.599Z,96260.69
2023-01-19T11:22:26.949Z,96255.81
2023-01-19T11:24:56.932Z,96267.47
2023-01-19T11:27:24.005Z,96251.91
2023-01-19T11:29:54.648Z,96255.16
2023-01-19T11:32:22.531Z,96253.28
2023-01-19T11:34:49.491Z,96248.03
2023-01-19T11:37:16.382Z,96256.22
2023-01-19T11:40:02.904Z,96255.06
2023-01-19T11:42:31.071Z,96259.50
2023-01-19T11:44:59.293Z,96257.28
2023-01-19T11:47:35.330Z,96257.63
2023-01-19T11:50:07.011Z,96252.63
2023-01-19T11:52:35.027Z,96256.06
2023-01-19T11:55:11.205Z,96258.22
2023-01-19T11:57:38.508Z,96246.25
2023-01-19T12:00:11.739Z,96246.97
2023-01-19T12:02:45.390Z,96248.41
2023-01-19T12:05:13.543Z,96246.50
2023-01-19T12:07:40.411Z,96244.34
2023-01-19T12:10:25.515Z,96244.38
2023-01-19T12:12:53.485Z,96240.59
2023-01-19T12:15:23.416Z,96245.09
2023-01-19T12:17:52.403Z,96238.63
2023-01-19T12:20:32.928Z,96242.22
2023-01-19T12:23:18.873Z,96237.19
2023-01-19T12:26:04.228Z,96242.72
2023-01-19T12:28:37.247Z,96237.84
2023-01-19T12:31:04.343Z,96243.94
2023-01-19T12:33:36.371Z,96241.41
2023-01-19T12:36:12.282Z,96241.16
2023-01-19T12:38:40.780Z,96234.88
2023-01-19T12:41:20.929Z,96239.00
2023-01-19T12:43:48.694Z,96233.84
2023-01-19T12:46:19.306Z,96235.41
2023-01-19T12:48:46.192Z,96229.91
2023-01-19T12:51:22.884Z,96231.19
2023-01-19T12:53:53.800Z,96234.63
2023-01-19T12:56:20.784Z,96238.41
2023-01-19T12:58:48.048Z,96233.94
2023-01-19T13:01:16.164Z,96225.84
2023-01-19T13:03:58.688Z,96229.22
2023-01-19T13:06:45.595Z,96235.69
2023-01-19T13:09:28.364Z,96233.72
2023-01-19T13:12:11.215Z,96240.03
2023-01-19T13:14:38.244Z,96227.78
2023-01-19T13:17:05.611Z,96235.69
2023-01-19T13:19:35.230Z,96227.44
2023-01-19T13:22:21.874Z,96223.16
2023-01-19T13:25:04.962Z,96221.75
2023-01-19T13:27:31.975Z,96221.75
2023-01-19T13:29:59.221Z,96227.50
2023-01-19T13:32:26.246Z,96221.88
2023-01-19T13:34:54.787Z,96223.09
2023-01-19T13:37:22.096Z,96221.50
2023-01-19T13:39:50.276Z,96221.69
2023-01-19T13:42:18.776Z,96217.16
2023-01-19T13:44:52.718Z,96222.53
2023-01-19T13:47:20.832Z,96218.03
2023-01-19T13:49:48.750Z,96216.44
2023-01-19T13:52:19.241Z,96212.28
2023-01-19T13:54:53.465Z,96214.19
2023-01-19T13:57:24.711Z,96213.47
2023-01-19T14:00:11.840Z,96223.00
2023-01-19T14:02:42.374Z,96216.22
2023-01-19T14:05:22.549Z,96218.59
2023-01-19T14:07:59.341Z,96223.81
2023-01-19T14:10:26.235Z,96220.69
2023-01-19T14:13:03.385Z,96212.44
2023-01-19T14:15:30.520Z,96208.66
2023-01-19T14:18:10.621Z,96206.91
2023-01-19T14:20:40.244Z,96209.63
2023-01-19T14:23:07.283Z,96206.19
2023-01-19T14:25:39.353Z,96214.84
2023-01-19T14:28:24.655Z,96218.31
2023-01-19T14:30:58.165Z,96211.84
2023-01-19T14:33:35.141Z,96212.72
2023-01-19T14:36:16.814Z,96208.44
2023-01-19T14:38:47.488Z,96208.63
2023-01-19T14:41:22.283Z,96200.72
2023-01-19T14:43:49.145Z,96206.09
2023-01-19T14:46:19.284Z,96207.88
2023-01-19T14:48:47.393Z,96210.75
2023-01-19T14:51:16.388Z,96204.25
2023-01-19T14:53:45.614Z,96203.75
2023-01-19T14:56:12.493Z,96205.91
2023-01-19T14:58:39.348Z,96209.50
2023-01-19T15:01:06.630Z,96208.78
2023-01-19T15:03:44.034Z,96208.63
2023-01-19T15:06:20.891Z,96209.69
2023-01-19T15:08:50.006Z,96213.81
2023-01-19T15:11:16.855Z,96211.09
2023-01-19T15:13:43.808Z,96204.63
2023-01-19T15:16:10.620Z,96207.63
2023-01-19T15:18:38.563Z,96215.53
2023-01-19T15:21:05.423Z,96211.38
2023-01-19T15:23:32.714Z,96205.44
2023-01-19T15:25:59.928Z,96203.09
2023-01-19T15:28:26.941Z,96208.59
2023-01-19T15:30:54.169Z,96209.50
2023-01-19T15:33:25.220Z,96208.97
2023-01-19T15:35:52.433Z,96206.09
2023-01-19T15:38:19.231Z,96204.13
2023-01-19T15:40:48.020Z,96202.47
2023-01-19T15:43:18.562Z,96208.00
2023-01-19T15:46:03.315Z,96202.63
2023-01-19T15:48:30.299Z,96206.94
2023-01-19T15:50:56.906Z,96208.19
2023-01-19T15:53:24.251Z,96209.25
2023-01-19T15:55:51.919Z,96205.38
2023-01-19T15:58:21.013Z,96207.44
2023-01-19T16:00:55.624Z,96204.34
2023-01-19T16:03:23.044Z,96209.00
2023-01-19T16:05:49.586Z,96205.78
2023-01-19T16:08:16.435Z,96202.72
2023-01-19T16:10:43.326Z,96197.72
2023-01-19T16:13:10.981Z,96206.84
2023-01-19T16:15:38.079Z,96195.09
2023-01-19T16:18:05.013Z,96200.22
2023-01-19T16:20:32.009Z,96211.69
2023-01-19T16:23:13.811Z,96201.81
2023-01-19T16:25:41.179Z,96205.34
2023-01-19T16:28:08.499Z,96198.31
2023-01-19T16:30:35.433Z,96192.56
2023-01-19T16:33:02.364Z,96192.91
2023-01-19T16:35:29.829Z,96200.88
2023-01-19T16:37:56.371Z,96197.09
2023-01-19T16:40:23.285Z,96194.03
2023-01-19T16:42:50.975Z,96187.72
2023-01-19T16:45:17.936Z,96190.41
2023-01-19T16:47:46.932Z,96187.00
2023-01-19T16:50:13.843Z,96188.78
2023-01-19T16:52:40.394Z,96190.16
2023-01-19T16:55:09.539Z,96186.69
2023-01-19T16:57:37.036Z,96185.38
2023-01-19T17:00:05.367Z,96196.13
2023-01-19T17:02:32.825Z,96195.13
2023-01-19T17:05:00.759Z,96199.38
2023-01-19T17:07:28.817Z,96196.78
2023-01-19T17:10:00.707Z,96202.84
2023-01-19T17:12:30.735Z,96204.94
2023-01-19T17:14:59.458Z,96200.72
2023-01-19T17:17:26.375Z,96200.06
2023-01-19T17:19:53.286Z,96201.16
2023-01-19T17:22:20.290Z,96201.53
2023-01-19T17:24:47.274Z,96203.72
2023-01-19T17:27:14.284Z,96201.22
2023-01-19T17:29:41.234Z,96201.22
2023-01-19T17:32:08.855Z,96203.22
2023-01-19T17:34:36.139Z,96195.69
2023-01-19T17:37:03.162Z,96203.03
2023-01-19T17:39:30.747Z,96199.44
2023-01-19T17:41:58.363Z,96200.53
2023-01-19T17:44:25.362Z,96197.28
2023-01-19T17:46:52.245Z,96202.69
2023-01-19T17:49:19.164Z,96204.13
2023-01-19T17:51:46.262Z,96210.97
2023-01-19T17:54:14.599Z,96205.75
2023-01-19T17:56:41.797Z,96208.59
2023-01-19T17:59:08.843Z,96202.69
2023-01-19T18:01:40.394Z,96208.25
2023-01-19T18:04:08.750Z,96205.22
2023-01-19T18:06:35.835Z,96203.22
2023-01-19T18:09:03.028Z,96206.81
2023-01-19T18:11:29.745Z,96205.53
2023-01-19T18:13:56.563Z,96206.47
2023-01-19T18:16:25.309Z,96203.03
2023-01-19T18:18:55.864Z,96205.75
2023-01-19T18:21:24.083Z,96201.22
2023-01-19T18:23:51.205Z,96209.50
2023-01-19T18:26:20.730Z,96211.66
2023-01-19T18:28:48.649Z,96210.41
2023-01-19T18:31:18.501Z,96205.72
2023-01-19T18:33:45.664Z,96203.75
2023-01-19T18:36:12.353Z,96199.78
2023-01-19T18:38:39.556Z,96198.00
2023-01-19T18:41:09.263Z,96203.38
2023-01-19T18:43:36.259Z,96190.06
2023-01-19T18:46:03.250Z,96197.63
2023-01-19T18:48:30.303Z,96203.03
2023-01-19T18:50:57.219Z,96207.16
2023-01-19T18:53:24.403Z,96200.50
2023-01-19T18:55:56.405Z,96207.88
2023-01-19T18:58:25.030Z,96207.31
2023-01-19T19:00:52.185Z,96213.28
2023-01-19T19:03:19.079Z,96207.31
2023-01-19T19:05:46.615Z,96195.28
2023-01-19T19:08:13.701Z,96205.53
2023-01-19T19:10:42.663Z,96199.44
2023-01-19T19:13:13.208Z,96200.16
2023-01-19T19:15:40.359Z,96200.31
2023-01-19T19:18:09.049Z,96209.84
2023-01-19T19:20:39.438Z,96207.84
2023-01-19T19:23:06.568Z,96204.44
2023-01-19T19:25:34.069Z,96199.25
2023-01-19T19:28:01.089Z,96203.38
2023-01-19T19:30:28.218Z,96215.59
2023-01-19T19:32:56.456Z,96211.63
2023-01-19T19:35:56.751Z,96205.50
2023-01-19T19:38:23.657Z,96209.13
2023-01-19T19:40:50.374Z,96207.66
2023-01-19T19:43:17.374Z,96212.34
2023-01-19T19:45:45.039Z,96202.28
2023-01-19T19:48:11.974Z,96212.69
2023-01-19T19:50:38.899Z,96204.44
2023-01-19T19:53:05.655Z,96209.13
2023-01-19T19:55:32.496Z,96207.13
2023-01-19T19:57:59.452Z,96208.03
2023-01-19T20:00:26.142Z,96208.03
2023-01-19T20:02:53.027Z,96204.06
2023-01-19T20:05:21.165Z,96205.31
2023-01-19T20:07:48.336Z,96210.72
2023-01-19T20:10:18.155Z,96218.09
2023-01-19T20:12:46.101Z,96217.38
2023-01-19T20:15:12.940Z,96217.38
2023-01-19T20:17:42.051Z,96221.34
2023-01-19T20:20:10.525Z,96222.78
2023-01-19T20:22:37.979Z,96231.03
2023-01-19T20:25:05.477Z,96231.03
2023-01-19T20:27:32.384Z,96233.72
2023-01-19T20:30:00.350Z,96235.19
2023-01-19T20:32:27.241Z,96227.25
2023-01-19T20:34:54.066Z,96229.97
2023-01-19T20:37:21.071Z,96229.25
2023-01-19T20:39:48.090Z,96228.53
2023-01-19T20:42:17.227Z,96234.63
2023-01-19T20:44:44.556Z,96235.53
2023-01-19T20:47:13.663Z,96246.16
2023-01-19T20:49:41.830Z,96239.50
2023-01-19T20:52:09.207Z,96232.81
2023-01-19T20:54:38.037Z,96242.19
2023-01-19T20:57:04.892Z,96248.13
2023-01-19T20:59:31.989Z,96250.81
2023-01-19T21:01:58.898Z,96244.00
2023-01-19T21:04:25.887Z,96260.19
2023-01-19T21:06:52.931Z,96258.56
2023-01-19T21:09:20.506Z,96257.13
2023-01-19T21:11:47.340Z,96270.78
2023-01-19T21:14:15.135Z,96267.38
2023-01-19T21:16:42.837Z,96268.28
2023-01-19T21:19:10.097Z,96272.97
2023-01-19T21:21:36.996Z,96273.13
2023-01-19T21:24:04.403Z,96282.66
2023-01-19T21:26:33.501Z,96281.38
2023-01-19T21:29:01.470Z,96282.66
2023-01-19T21:31:29.035Z,96288.59
2023-01-19T21:33:58.478Z,96278.53
2023-01-19T21:36:26.057Z,96282.66
2023-01-19T21:38:52.934Z,96283.19
2023-01-19T21:41:20.173Z,96288.06
2023-01-19T21:43:47.407Z,96290.03
2023-01-19T21:46:21.815Z,96288.59
2023-01-19T21:48:48.996Z,96290.75
2023-01-19T21:51:16.307Z,96298.28
2023-01-19T21:53:43.272Z,96298.28
2023-01-19T21:56:11.225Z,96301.53
2023-01-19T21:58:38.276Z,96303.69
2023-01-19T22:01:13.637Z,96306.38
2023-01-19T22:03:41.422Z,96312.53
2023-01-19T22:06:10.283Z,96307.13
2023-01-19T22:08:37.656Z,96308.38
2023-01-19T22:11:06.269Z,96317.94
2023-01-19T22:13:34.010Z,96308.56
2023-01-19T22:16:05.421Z,96314.31
2023-01-19T22:18:32.919Z,96312.53
2023-01-19T22:21:15.653Z,96319.88
2023-01-19T22:23:42.746Z,96324.56
2023-01-19T22:26:11.262Z,96332.47
2023-01-19T22:28:38.134Z,96336.63
2023-01-19T22:31:10.922Z,96335.19
2023-01-19T22:33:38.299Z,96338.59
2023-01-19T22:36:26.343Z,96335.19
2023-01-19T22:38:54.969Z,96338.75
2023-01-19T22:41:30.056Z,96345.78
2023-01-19T22:43:59.394Z,96339.69
2023-01-19T22:46:31.067Z,96342.38
2023-01-19T22:48:58.452Z,96342.22
2023-01-19T22:51:26.037Z,96339.50
2023-01-19T22:53:52.953Z,96341.28
2023-01-19T22:56:24.860Z,96342.72
2023-01-19T22:58:52.255Z,96340.03
2023-01-19T23:01:20.059Z,96339.31
2023-01-19T23:03:47.204Z,96352.63
2023-01-19T23:06:16.684Z,96354.78
2023-01-19T23:08:44.281Z,96348.84
2023-01-19T23:11:14.585Z,96348.13
2023-01-19T23:13:42.428Z,96342.00
2023-01-19T23:16:10.600Z,96346.69
2023-01-19T23:18:37.550Z,96341.13
2023-01-19T23:21:12.204Z,96345.81
2023-01-19T23:23:39.777Z,96348.66
2023-01-19T23:26:19.040Z,96347.25
2023-01-19T23:28:46.690Z,96354.63
2023-01-19T23:31:16.419Z,96349.75
2023-01-19T23:33:44.401Z,96345.06
2023-01-19T23:36:12.115Z,96360.38
2023-01-19T23:38:39.230Z,96355.50
2023-01-19T23:41:06.225Z,96346.88
2023-01-19T23:43:33.433Z,96344.00
2023-01-19T23:46:08.219Z,96354.59
2023-01-19T23:48:35.772Z,96356.03
2023-01-19T23:51:10.424Z,96366.09
2023-01-19T23:53:37.269Z,96363.41
2023-01-19T23:56:21.465Z,96372.22
2023-01-19T23:58:53.143Z,96379.06
